Terminal Aerodrome Forecast
Issued by NWS

Current Version | Previous Version | Text Only | Print | Product List | Glossary On
Versions: 1 2 3 4 5 6 7 8 9 10 11 12 13 14 15 16 17 18
000 FTUS41 KBOX 271120 TAFACK TAF KACK 271120Z 2712/2812 19010KT P6SM FEW250 FM280900 18008KT 1SM BR SCT250=

USA.gov is the U.S. government's official web portal to all federal, state and local government web resources and services.